1S5

Sunnyside Municipal Airport

Sunnyside, Washington, USA
METAR K1S5 181335Z AUTO 00000KT 10SM CLR 02/00 A3009 RMK AO2 T00230003
Observed Flight Rules
Jan-18 @ 13:35 UTC (10 minutes ago) Visual Flight Rules
Visibility Clouds
10 miles
  • Clear skies
Temperatures Readings
Current 2°C / 36°F
Dewpoint 0°C / 32°F
Humidity 87%
Altimeter 30.09" Hg
Pressure 1018.92 hPa
Elevation 234
METAR K1S5 181335Z AUTO 00000KT 10SM CLR 02/00 A3009 RMK AO2 T00230003
Observed Flight Rules
Jan-18 @ 13:35 UTC
(10 minutes ago)
VFR
Clouds
  • Clear skies
Temperature Dewpoint
2°C / 36°F 0°C / 32°F
Humidity Altimeter Pressure
87% 30.09" Hg 1018.92 hPa